AKST,Max TemperatureF,Mean TemperatureF,Min TemperatureF,Max Dew PointF,MeanDew PointF,Min DewpointF,Max Humidity, Mean Humidity, Min Humidity, Max Sea Level PressureIn, Mean Sea Level PressureIn, Min Sea Level PressureIn, Max VisibilityMiles, Mean VisibilityMiles, Min VisibilityMiles, Max Wind SpeedMPH, Mean Wind SpeedMPH, Max Gust SpeedMPH,PrecipitationIn, CloudCover, Events, WindDirDegrees
2013-1-1,32,26,21,24,16,13,85,67,54,29.83,29.48,29.19,10,10,9,25,9,,0.00,7,,25
2013-1-2,33,28,23,24,21,17,79,67,46,29.71,29.58,29.44,10,10,10,23,18,31,0.00,4,,162
2013-1-3,28,22,14,17,11,7,74,62,45,29.78,29.74,29.62,10,10,10,18,10,,0.00,6,,23
2013-1-4,18,13,8,8,6,4,83,74,59,29.99,29.88,29.67,10,10,10,8,5,,0.00,5,,346
2013-1-5,17,12,6,12,9,5,88,82,71,29.92,29.66,29.38,10,10,7,5,1,,0.00,8,Snow,83
2013-1-6,15,8,0,10,5,-4,92,86,75,29.57,29.45,29.17,10,10,10,6,2,,0.00,5,,10
2013-1-7,12,2,-7,5,-2,-10,92,84,74,29.57,29.41,29.31,10,10,10,7,3,,0.00,4,,318
2013-1-8,5,0,-8,1,-5,-12,91,83,74,30.08,29.83,29.59,10,9,2,6,2,,0.02,6,Snow,341
2013-1-9,3,-4,-11,2,-4,-16,95,87,72,30.28,30.17,29.99,10,4,0,5,1,,0.00,7,Fog-Snow,318
2013-1-10,9,1,-7,6,1,-7,92,85,75,30.31,30.17,29.98,10,9,5,6,1,,0.00,8,Snow,337
2013-1-11,10,6,-2,7,3,-6,92,86,79,30.35,30.18,30.00,10,8,2,5,0,,0.00,7,Snow,64
2013-1-12,33,15,-2,27,8,-8,92,85,78,30.36,30.19,29.92,10,10,10,22,4,29,0.00,7,,65
2013-1-13,39,23,7,34,31,28,89,79,67,30.00,29.84,29.65,10,10,10,26,23,37,0.00,6,,162
2013-1-14,41,39,37,33,29,26,86,68,45,29.83,29.67,29.53,10,10,10,29,21,41,0.00,7,,168
2013-1-15,37,24,12,28,15,6,82,70,50,30.27,30.09,29.83,10,10,10,16,8,,0.00,5,,282
2013-1-16,15,10,1,8,5,-1,92,84,72,30.26,29.99,29.61,10,9,1,5,1,,0.03,7,Snow,201
2013-1-17,14,7,0,10,4,-4,88,85,75,29.95,29.66,29.46,10,9,2,5,2,,0.01,7,Snow,332
2013-1-18,12,2,-7,8,0,-9,88,78,61,30.42,30.22,29.93,10,10,10,6,3,,0.00,7,Snow,348
2013-1-19,7,2,-2,-1,-3,-5,83,72,57,30.48,30.39,30.14,10,10,2,5,1,,0.00,8,Snow,338
2013-1-20,9,4,0,5,2,-2,92,80,61,30.26,30.11,29.93,10,6,0,5,1,,0.28,8,Fog-Snow,6
2013-1-21,12,10,6,9,7,3,95,88,82,30.15,30.05,29.86,10,8,0,6,0,,0.00,8,Fog-Snow,354
2013-1-22,10,8,5,6,4,1,92,84,75,30.00,29.81,29.55,10,10,10,5,2,,0.03,8,,354
2013-1-23,14,6,-2,10,6,-6,92,85,77,29.68,29.56,29.43,10,6,1,4,0,,0.16,7,Snow,350
2013-1-24,12,9,6,9,5,-2,95,88,77,29.65,29.52,29.32,10,7,1,7,1,,0.00,7,,358
2013-1-25,12,6,-2,9,2,-8,88,80,60,29.71,29.47,29.25,10,4,0,14,8,18,0.20,8,Fog-Snow,348
2013-1-26,1,-14,-32,-11,-20,-34,79,66,42,30.04,29.87,29.60,10,10,10,10,8,,0.00,3,,316
2013-1-27,-11,-27,-43,-21,-27,-36,73,62,43,30.36,30.15,29.84,10,10,2,16,6,26,0.00,0,,314
2013-1-28,-15,-24,-33,-21,-26,-34,79,66,43,30.57,30.40,30.05,10,8,1,16,7,,0.08,4,Snow,352
2013-1-29,-6,-20,-34,-12,-18,-21,79,72,53,30.27,30.11,29.89,10,7,1,5,1,,0.02,8,Snow,305
2013-1-30,1,-6,-13,-4,-9,-13,83,77,60,30.20,30.07,29.75,10,10,7,5,0,,0.00,8,Snow,300
2013-1-31,15,4,-7,11,5,-2,100,88,77,30.09,29.92,29.75,10,6,0,4,0,,0.04,8,Fog-Snow,310